x

North Hecate Strait (46183) Wave Buoy

10:00am - Sun 19th Feb 2017 All times are PST. -8 hours from GMT.

  • Sig Wave height 1.6ft
  • Peak Period 4s
  • Wind
    4mph, 7mph gusts
  • Air Temp 41°f
  • Sea Pressure 996.6mb
  • North Hecate Strait
  • North Hecate Strait

More Historic Weather Station data

Upgrade to MSW Pro to gain access to the past 30 days of data for over 8000 Wavebouys and Weather Stations around the globe.

Join Pro

Comparision Forecast

View Surf forecast
   
Sun 02/19 10:00am 1.6ft 4s 4 7 mph 996.6mb 41f
9:00am 1.6ft 4s 7
mph
996.3mb 41f
8:00am 1.6ft 4s 7 9 mph 996.1mb 40f
7:00am 1.6ft 4s 7 9 mph 995.9mb 40f
6:00am 1.6ft 4s 4 7 mph 995.8mb 40f
5:00am 1.6ft 5s 7 9 mph 995.7mb 41f
4:00am 1.6ft 5s 7 9 mph 995.7mb 41f
3:00am 2ft 5s 4 7 mph 996mb 41f
2:00am 2ft 5s 4 7 mph 995.9mb 41f
1:00am 2ft 5s 7
mph
996mb 41f
12:00am 2.5ft 5s 7 9 mph 995.9mb 41f
Sat 02/18 11:00pm 2.5ft 5s 7 9 mph 995.9mb 41f
10:00pm 2.5ft 5s 9 11 mph 995.7mb 41f
9:00pm 2.5ft 4s 11 13 mph 995.6mb 41f
8:00pm 2.5ft 5s 11 13 mph 995.6mb 41f
7:00pm 2.5ft 5s 11 13 mph 995.8mb 41f
6:00pm 2.5ft 5s 11 13 mph 996.1mb 41f
5:00pm 3ft 5s 11 16 mph 996.5mb 41f
4:00pm 3ft 5s 13 18 mph 996.9mb 41f
3:00pm 3.5ft 5s 16 18 mph 997mb 40f
2:00pm 3.5ft 5s 18 22 mph 997.4mb 40f
1:00pm 3.5ft 5s 16 20 mph 998.1mb 39f
12:00pm 3.5ft 5s 16 18 mph 998.9mb 40f
11:00am 3.5ft 5s 18 22 mph 999.3mb 39f
10:00am 3.5ft 4s 18 22 mph 999.7mb 39f
9:00am 3.5ft 5s 18 22 mph 1000.4mb 40f
8:00am 3.5ft 4s 18 22 mph 1001mb 39f
7:00am 3.5ft 4s 20 25 mph 1001.7mb 39f
5:00am 2.5ft 10s 18 22 mph 1003.2mb 40f
4:00am 2.5ft 10s 18 22 mph 1003.9mb 41f
3:00am 2.5ft 10s 13 18 mph 1004.9mb 41f
2:00am 2ft 11s 13 18 mph 1005.5mb 41f
1:00am 2.5ft 10s 11 16 mph 1006mb 41f
12:00am 2.5ft 10s 11 13 mph 1006.4mb 41f
Fri 02/17 11:00pm 2.5ft 10s 11 13 mph 1006.9mb 41f
10:00pm 2.5ft 10s 11 13 mph 1007.3mb 41f
9:00pm 3ft 10s 11 13 mph 1007.6mb 41f
8:00pm 3ft 11s 13 16 mph 1007.5mb 41f
7:00pm 2.5ft 11s 11 13 mph 1007.8mb 41f
6:00pm 2.5ft 11s 11 13 mph 1008mb 41f
5:00pm 3ft 11s 11
mph
1008.2mb 42f
4:00pm 3ft 11s 9 11 mph 1008.5mb 42f
3:00pm 2.5ft 11s 9 11 mph 1008.7mb 41f
2:00pm 3ft 11s 9 11 mph 1008.9mb 41f
1:00pm 2.5ft 10s 9 13 mph 1009mb 41f
12:00pm 3ft 12s 9 11 mph 1009.1mb 40f
11:00am 3.5ft 11s 9 11 mph 1008.9mb 40f
10:00am 3.5ft 12s 13 16 mph 1008.6mb 40f
9:00am 3.5ft 11s 11 13 mph 1008.6mb 40f
8:00am 4ft 12s 13 16 mph 1008mb 40f
7:00am 4.5ft 11s 11 13 mph 1007.6mb 40f
6:00am 4.5ft 11s 13 16 mph 1007.3mb 40f
5:00am 4.5ft 11s 13 18 mph 1006.7mb 41f
4:00am 4.5ft 11s  -  mph 1006.1mb 41f
3:00am 5ft 11s 16 18 mph 1005.8mb 41f
2:00am 4.5ft 11s 18 25 mph 1005.1mb 40f
1:00am 4.5ft 12s 18 22 mph 1004.7mb 41f
12:00am 5ft 12s 18 22 mph 1004mb 41f
Thu 02/16 11:00pm 4.5ft 12s 18 22 mph 1003.3mb 41f
10:00pm 4.5ft 13s 18 20 mph 1002.5mb 41f
9:00pm 5ft 12s 20 25 mph 1001.4mb 40f
8:00pm 5ft 12s 22 27 mph 1000.2mb 41f
7:00pm 5ft 12s 22 27 mph 999.1mb 41f
6:00pm 5.5ft 5s 20 25 mph 998mb 41f
5:00pm 5ft 5s 22 27 mph 996.6mb 41f
4:00pm 5.5ft 11s 18 22 mph 995.5mb 42f
3:00pm 6ft 11s 16 20 mph 994mb 43f
2:00pm 6ft 11s 22 27 mph 992.5mb 44f
1:00pm 6ft 5s 20 25 mph 991.4mb 43f
12:00pm 5.5ft 5s 22 27 mph 990.2mb 43f
11:00am 5.5ft 5s 25 29 mph 988.7mb 42f
10:00am 6ft 7s 25 29 mph 987.2mb 41f
9:00am 6ft 6s 27 31 mph 985.7mb 41f
8:00am 6ft 6s 25 29 mph 984.7mb 41f
7:00am 6ft 6s 25 29 mph 983.2mb 41f
6:00am 6.5ft 6s 27 34 mph 982.4mb 42f
5:00am 7ft 6s 27 34 mph 982.1mb 42f
4:00am 7ft 6s 29 36 mph 982mb 42f
3:00am 6.5ft 6s 29 36 mph 982.7mb 43f
2:00am 6ft 6s 29 36 mph 983.1mb 43f
1:00am  -   -  27
mph
1004mb 43f
12:00am 5ft 10s 25 31 mph 984.5mb 44f
Wed 02/15 11:00pm 5ft 5s 25 31 mph 985.1mb 43f
10:00pm 5.5ft 11s 20 25 mph 986.2mb 44f
9:00pm 5.5ft 10s 22 27 mph 987.2mb 44f
8:00pm 5.5ft 10s 22 27 mph 987.8mb 43f